sensor_id;sensor_type;location;lat;lon;timestamp;P1;durP1;ratioP1;P2;durP2;ratioP2
59770;SDS011;45649;53.014;6.600;2023-02-24T00:01:26;8.23;;;2.53;;
59770;SDS011;45649;53.014;6.600;2023-02-24T00:06:21;4.97;;;2.10;;
59770;SDS011;45649;53.014;6.600;2023-02-24T00:08:47;4.80;;;2.10;;
59770;SDS011;45649;53.014;6.600;2023-02-24T00:11:14;3.00;;;2.13;;
59770;SDS011;45649;53.014;6.600;2023-02-24T00:13:41;8.40;;;2.30;;
59770;SDS011;45649;53.014;6.600;2023-02-24T00:16:11;6.23;;;2.37;;
59770;SDS011;45649;53.014;6.600;2023-02-24T00:18:37;8.20;;;1.80;;
59770;SDS011;45649;53.014;6.600;2023-02-24T00:21:13;3.50;;;2.40;;
59770;SDS011;45649;53.014;6.600;2023-02-24T00:23:44;7.10;;;2.13;;
59770;SDS011;45649;53.014;6.600;2023-02-24T00:26:10;6.03;;;2.13;;
59770;SDS011;45649;53.014;6.600;2023-02-24T00:28:37;5.30;;;1.80;;
59770;SDS011;45649;53.014;6.600;2023-02-24T00:31:07;5.10;;;2.23;;
59770;SDS011;45649;53.014;6.600;2023-02-24T00:33:35;7.27;;;1.90;;
59770;SDS011;45649;53.014;6.600;2023-02-24T00:36:18;6.83;;;2.20;;
59770;SDS011;45649;53.014;6.600;2023-02-24T00:38:52;5.27;;;2.10;;
59770;SDS011;45649;53.014;6.600;2023-02-24T00:41:25;5.13;;;2.30;;
59770;SDS011;45649;53.014;6.600;2023-02-24T00:43:59;4.27;;;2.10;;
59770;SDS011;45649;53.014;6.600;2023-02-24T00:46:38;4.37;;;2.10;;
59770;SDS011;45649;53.014;6.600;2023-02-24T00:49:05;7.07;;;2.00;;
59770;SDS011;45649;53.014;6.600;2023-02-24T00:51:38;7.80;;;2.20;;
59770;SDS011;45649;53.014;6.600;2023-02-24T00:54:04;6.30;;;2.37;;
59770;SDS011;45649;53.014;6.600;2023-02-24T00:56:30;7.43;;;2.20;;
59770;SDS011;45649;53.014;6.600;2023-02-24T00:58:57;8.43;;;2.40;;
59770;SDS011;45649;53.014;6.600;2023-02-24T01:01:25;5.73;;;2.10;;
59770;SDS011;45649;53.014;6.600;2023-02-24T01:03:51;6.57;;;2.20;;
59770;SDS011;45649;53.014;6.600;2023-02-24T01:06:21;7.00;;;2.40;;
59770;SDS011;45649;53.014;6.600;2023-02-24T01:08:48;5.53;;;2.20;;
59770;SDS011;45649;53.014;6.600;2023-02-24T01:11:15;6.70;;;2.30;;
59770;SDS011;45649;53.014;6.600;2023-02-24T01:14:09;4.73;;;2.10;;
59770;SDS011;45649;53.014;6.600;2023-02-24T01:16:35;5.40;;;2.53;;
59770;SDS011;45649;53.014;6.600;2023-02-24T01:19:02;8.53;;;2.50;;
59770;SDS011;45649;53.014;6.600;2023-02-24T01:21:29;7.63;;;2.53;;
59770;SDS011;45649;53.014;6.600;2023-02-24T01:23:56;4.87;;;2.17;;
59770;SDS011;45649;53.014;6.600;2023-02-24T01:26:22;6.43;;;2.43;;
59770;SDS011;45649;53.014;6.600;2023-02-24T01:28:50;7.40;;;2.50;;
59770;SDS011;45649;53.014;6.600;2023-02-24T01:31:16;8.63;;;2.30;;
59770;SDS011;45649;53.014;6.600;2023-02-24T01:33:44;6.97;;;2.10;;
59770;SDS011;45649;53.014;6.600;2023-02-24T01:36:12;5.10;;;2.53;;
59770;SDS011;45649;53.014;6.600;2023-02-24T01:38:38;5.70;;;2.30;;
59770;SDS011;45649;53.014;6.600;2023-02-24T01:41:07;6.13;;;2.30;;
59770;SDS011;45649;53.014;6.600;2023-02-24T01:43:52;6.17;;;2.50;;
59770;SDS011;45649;53.014;6.600;2023-02-24T01:46:18;6.13;;;2.20;;
59770;SDS011;45649;53.014;6.600;2023-02-24T01:48:48;8.37;;;2.73;;
59770;SDS011;45649;53.014;6.600;2023-02-24T01:51:15;4.83;;;2.00;;
59770;SDS011;45649;53.014;6.600;2023-02-24T01:53:41;7.43;;;2.13;;
59770;SDS011;45649;53.014;6.600;2023-02-24T01:56:08;5.63;;;2.60;;
59770;SDS011;45649;53.014;6.600;2023-02-24T01:58:38;7.47;;;2.27;;
59770;SDS011;45649;53.014;6.600;2023-02-24T02:01:04;4.57;;;2.40;;
59770;SDS011;45649;53.014;6.600;2023-02-24T02:03:34;7.03;;;2.50;;
59770;SDS011;45649;53.014;6.600;2023-02-24T02:06:05;6.47;;;2.30;;
59770;SDS011;45649;53.014;6.600;2023-02-24T02:08:32;7.17;;;2.53;;
59770;SDS011;45649;53.014;6.600;2023-02-24T02:11:05;7.30;;;2.30;;
59770;SDS011;45649;53.014;6.600;2023-02-24T02:13:31;7.77;;;2.20;;
59770;SDS011;45649;53.014;6.600;2023-02-24T02:18:47;6.07;;;2.00;;
59770;SDS011;45649;53.014;6.600;2023-02-24T02:34:33;8.73;;;2.30;;
59770;SDS011;45649;53.014;6.600;2023-02-24T02:40:13;4.87;;;2.20;;
59770;SDS011;45649;53.014;6.600;2023-02-24T02:45:03;6.50;;;1.90;;
59770;SDS011;45649;53.014;6.600;2023-02-24T02:47:36;5.73;;;2.27;;
59770;SDS011;45649;53.014;6.600;2023-02-24T02:50:09;7.47;;;2.00;;
59770;SDS011;45649;53.014;6.600;2023-02-24T02:52:44;6.30;;;2.63;;
59770;SDS011;45649;53.014;6.600;2023-02-24T02:55:14;6.37;;;1.80;;
59770;SDS011;45649;53.014;6.600;2023-02-24T02:57:43;9.40;;;2.03;;
59770;SDS011;45649;53.014;6.600;2023-02-24T03:00:13;6.83;;;2.13;;
59770;SDS011;45649;53.014;6.600;2023-02-24T03:02:47;5.83;;;1.80;;
59770;SDS011;45649;53.014;6.600;2023-02-24T03:05:15;6.13;;;2.00;;
59770;SDS011;45649;53.014;6.600;2023-02-24T03:07:42;5.47;;;2.10;;
59770;SDS011;45649;53.014;6.600;2023-02-24T03:10:14;7.93;;;2.13;;
59770;SDS011;45649;53.014;6.600;2023-02-24T03:12:45;5.27;;;1.90;;
59770;SDS011;45649;53.014;6.600;2023-02-24T03:15:12;5.93;;;1.90;;
59770;SDS011;45649;53.014;6.600;2023-02-24T03:17:40;5.37;;;2.10;;
59770;SDS011;45649;53.014;6.600;2023-02-24T03:22:45;4.23;;;1.90;;
59770;SDS011;45649;53.014;6.600;2023-02-24T03:25:14;6.70;;;2.10;;
59770;SDS011;45649;53.014;6.600;2023-02-24T03:28:00;6.30;;;2.17;;
59770;SDS011;45649;53.014;6.600;2023-02-24T03:30:43;6.70;;;1.80;;
59770;SDS011;45649;53.014;6.600;2023-02-24T03:33:20;4.90;;;1.90;;
59770;SDS011;45649;53.014;6.600;2023-02-24T03:35:48;8.13;;;1.97;;
59770;SDS011;45649;53.014;6.600;2023-02-24T03:38:16;7.30;;;1.77;;
59770;SDS011;45649;53.014;6.600;2023-02-24T03:40:42;6.77;;;1.90;;
59770;SDS011;45649;53.014;6.600;2023-02-24T03:43:20;5.57;;;1.90;;
59770;SDS011;45649;53.014;6.600;2023-02-24T03:45:50;4.40;;;1.70;;
59770;SDS011;45649;53.014;6.600;2023-02-24T03:48:16;6.13;;;1.80;;
59770;SDS011;45649;53.014;6.600;2023-02-24T03:50:42;4.87;;;1.90;;
59770;SDS011;45649;53.014;6.600;2023-02-24T03:58:32;8.37;;;2.53;;
59770;SDS011;45649;53.014;6.600;2023-02-24T04:03:48;6.18;;;2.20;;
59770;SDS011;45649;53.014;6.600;2023-02-24T04:08:52;12.70;;;2.40;;
59770;SDS011;45649;53.014;6.600;2023-02-24T04:11:35;6.50;;;1.83;;
59770;SDS011;45649;53.014;6.600;2023-02-24T04:14:11;5.70;;;1.83;;
59770;SDS011;45649;53.014;6.600;2023-02-24T04:16:40;5.93;;;2.00;;
59770;SDS011;45649;53.014;6.600;2023-02-24T04:19:09;5.27;;;1.80;;
59770;SDS011;45649;53.014;6.600;2023-02-24T04:21:38;8.53;;;1.93;;
59770;SDS011;45649;53.014;6.600;2023-02-24T04:24:05;4.67;;;2.20;;
59770;SDS011;45649;53.014;6.600;2023-02-24T04:26:35;7.57;;;2.10;;
59770;SDS011;45649;53.014;6.600;2023-02-24T04:29:04;3.57;;;2.03;;
59770;SDS011;45649;53.014;6.600;2023-02-24T04:31:31;6.00;;;1.90;;
59770;SDS011;45649;53.014;6.600;2023-02-24T04:33:58;5.30;;;1.77;;
59770;SDS011;45649;53.014;6.600;2023-02-24T04:36:25;7.37;;;1.90;;
59770;SDS011;45649;53.014;6.600;2023-02-24T04:38:52;9.23;;;2.13;;
59770;SDS011;45649;53.014;6.600;2023-02-24T04:41:18;6.70;;;1.90;;
59770;SDS011;45649;53.014;6.600;2023-02-24T04:43:48;7.97;;;2.07;;
59770;SDS011;45649;53.014;6.600;2023-02-24T04:46:15;4.40;;;1.80;;
59770;SDS011;45649;53.014;6.600;2023-02-24T04:48:41;7.50;;;1.77;;
59770;SDS011;45649;53.014;6.600;2023-02-24T04:51:07;7.57;;;2.07;;
59770;SDS011;45649;53.014;6.600;2023-02-24T04:53:33;4.13;;;1.70;;
59770;SDS011;45649;53.014;6.600;2023-02-24T04:56:02;4.87;;;1.70;;
59770;SDS011;45649;53.014;6.600;2023-02-24T04:58:33;9.40;;;2.40;;
59770;SDS011;45649;53.014;6.600;2023-02-24T05:00:59;4.77;;;1.83;;
59770;SDS011;45649;53.014;6.600;2023-02-24T05:03:32;9.40;;;2.00;;
59770;SDS011;45649;53.014;6.600;2023-02-24T05:05:59;5.70;;;1.67;;
59770;SDS011;45649;53.014;6.600;2023-02-24T05:08:26;5.37;;;1.63;;
59770;SDS011;45649;53.014;6.600;2023-02-24T05:10:53;6.80;;;2.20;;
59770;SDS011;45649;53.014;6.600;2023-02-24T05:13:22;6.23;;;1.67;;
59770;SDS011;45649;53.014;6.600;2023-02-24T05:15:52;4.87;;;1.87;;
59770;SDS011;45649;53.014;6.600;2023-02-24T05:18:18;4.47;;;1.87;;
59770;SDS011;45649;53.014;6.600;2023-02-24T05:20:46;6.57;;;1.80;;
59770;SDS011;45649;53.014;6.600;2023-02-24T05:23:32;6.97;;;1.83;;
59770;SDS011;45649;53.014;6.600;2023-02-24T05:25:59;6.67;;;1.73;;
59770;SDS011;45649;53.014;6.600;2023-02-24T05:28:25;6.37;;;2.10;;
59770;SDS011;45649;53.014;6.600;2023-02-24T05:31:02;7.73;;;2.00;;
59770;SDS011;45649;53.014;6.600;2023-02-24T05:33:29;3.90;;;1.70;;
59770;SDS011;45649;53.014;6.600;2023-02-24T05:35:55;5.67;;;1.70;;
59770;SDS011;45649;53.014;6.600;2023-02-24T05:38:22;6.10;;;1.67;;
59770;SDS011;45649;53.014;6.600;2023-02-24T05:40:48;6.30;;;1.77;;
59770;SDS011;45649;53.014;6.600;2023-02-24T05:43:14;6.03;;;2.00;;
59770;SDS011;45649;53.014;6.600;2023-02-24T05:45:46;5.30;;;1.80;;
59770;SDS011;45649;53.014;6.600;2023-02-24T05:48:13;8.37;;;2.23;;
59770;SDS011;45649;53.014;6.600;2023-02-24T05:50:40;4.87;;;1.83;;
59770;SDS011;45649;53.014;6.600;2023-02-24T05:53:10;4.90;;;2.20;;
59770;SDS011;45649;53.014;6.600;2023-02-24T05:55:36;8.53;;;2.03;;
59770;SDS011;45649;53.014;6.600;2023-02-24T05:58:02;7.50;;;2.00;;
59770;SDS011;45649;53.014;6.600;2023-02-24T06:00:31;5.50;;;1.90;;
59770;SDS011;45649;53.014;6.600;2023-02-24T06:03:02;7.67;;;2.07;;
59770;SDS011;45649;53.014;6.600;2023-02-24T06:05:33;4.43;;;1.97;;
59770;SDS011;45649;53.014;6.600;2023-02-24T06:08:03;6.03;;;2.10;;
59770;SDS011;45649;53.014;6.600;2023-02-24T06:10:30;6.43;;;1.90;;
59770;SDS011;45649;53.014;6.600;2023-02-24T06:12:57;6.00;;;2.27;;
59770;SDS011;45649;53.014;6.600;2023-02-24T06:15:25;9.10;;;1.87;;
59770;SDS011;45649;53.014;6.600;2023-02-24T06:17:51;9.53;;;2.10;;
59770;SDS011;45649;53.014;6.600;2023-02-24T06:20:22;7.23;;;2.13;;
59770;SDS011;45649;53.014;6.600;2023-02-24T06:22:48;6.60;;;1.70;;
59770;SDS011;45649;53.014;6.600;2023-02-24T06:25:18;8.77;;;2.00;;
59770;SDS011;45649;53.014;6.600;2023-02-24T06:27:44;6.80;;;1.70;;
59770;SDS011;45649;53.014;6.600;2023-02-24T06:30:17;7.03;;;2.07;;
59770;SDS011;45649;53.014;6.600;2023-02-24T06:32:43;8.93;;;2.20;;
59770;SDS011;45649;53.014;6.600;2023-02-24T06:35:09;7.13;;;2.43;;
59770;SDS011;45649;53.014;6.600;2023-02-24T06:37:36;6.00;;;2.30;;
59770;SDS011;45649;53.014;6.600;2023-02-24T06:40:04;7.70;;;2.20;;
59770;SDS011;45649;53.014;6.600;2023-02-24T06:42:46;9.60;;;2.57;;
59770;SDS011;45649;53.014;6.600;2023-02-24T06:45:13;6.73;;;2.50;;
59770;SDS011;45649;53.014;6.600;2023-02-24T06:47:41;9.20;;;2.60;;
59770;SDS011;45649;53.014;6.600;2023-02-24T06:50:08;10.30;;;2.87;;
59770;SDS011;45649;53.014;6.600;2023-02-24T06:52:34;10.03;;;2.60;;
59770;SDS011;45649;53.014;6.600;2023-02-24T06:55:01;5.83;;;2.60;;
59770;SDS011;45649;53.014;6.600;2023-02-24T06:57:30;12.77;;;3.60;;
59770;SDS011;45649;53.014;6.600;2023-02-24T07:00:00;11.27;;;3.37;;
59770;SDS011;45649;53.014;6.600;2023-02-24T07:02:41;9.10;;;3.17;;
59770;SDS011;45649;53.014;6.600;2023-02-24T07:05:07;9.07;;;3.50;;
59770;SDS011;45649;53.014;6.600;2023-02-24T07:07:38;9.47;;;3.67;;
59770;SDS011;45649;53.014;6.600;2023-02-24T07:10:10;10.40;;;3.60;;
59770;SDS011;45649;53.014;6.600;2023-02-24T07:12:37;10.43;;;3.40;;
59770;SDS011;45649;53.014;6.600;2023-02-24T07:15:06;14.10;;;4.00;;
59770;SDS011;45649;53.014;6.600;2023-02-24T07:17:32;14.63;;;3.90;;
59770;SDS011;45649;53.014;6.600;2023-02-24T07:19:58;12.33;;;3.77;;
59770;SDS011;45649;53.014;6.600;2023-02-24T07:22:35;10.33;;;3.90;;
59770;SDS011;45649;53.014;6.600;2023-02-24T07:25:01;11.63;;;4.10;;
59770;SDS011;45649;53.014;6.600;2023-02-24T07:27:28;12.80;;;3.33;;
59770;SDS011;45649;53.014;6.600;2023-02-24T07:29:55;13.20;;;4.33;;
59770;SDS011;45649;53.014;6.600;2023-02-24T07:32:21;10.97;;;4.43;;
59770;SDS011;45649;53.014;6.600;2023-02-24T07:34:49;10.03;;;3.77;;
59770;SDS011;45649;53.014;6.600;2023-02-24T07:37:15;13.50;;;4.67;;
59770;SDS011;45649;53.014;6.600;2023-02-24T07:39:43;13.57;;;4.20;;
59770;SDS011;45649;53.014;6.600;2023-02-24T07:42:10;14.40;;;5.07;;
59770;SDS011;45649;53.014;6.600;2023-02-24T07:44:39;13.67;;;4.33;;
59770;SDS011;45649;53.014;6.600;2023-02-24T07:47:06;11.27;;;4.40;;
59770;SDS011;45649;53.014;6.600;2023-02-24T07:49:32;14.17;;;4.60;;
59770;SDS011;45649;53.014;6.600;2023-02-24T07:51:59;17.87;;;5.10;;
59770;SDS011;45649;53.014;6.600;2023-02-24T07:54:26;12.27;;;4.70;;
59770;SDS011;45649;53.014;6.600;2023-02-24T07:56:54;13.10;;;4.60;;
59770;SDS011;45649;53.014;6.600;2023-02-24T07:59:21;12.20;;;4.33;;
59770;SDS011;45649;53.014;6.600;2023-02-24T08:01:48;14.67;;;4.90;;
59770;SDS011;45649;53.014;6.600;2023-02-24T08:04:16;11.37;;;3.97;;
59770;SDS011;45649;53.014;6.600;2023-02-24T08:06:43;14.07;;;3.90;;
59770;SDS011;45649;53.014;6.600;2023-02-24T08:09:13;11.13;;;3.90;;
59770;SDS011;45649;53.014;6.600;2023-02-24T08:11:53;10.30;;;4.53;;
59770;SDS011;45649;53.014;6.600;2023-02-24T08:14:24;15.40;;;4.90;;
59770;SDS011;45649;53.014;6.600;2023-02-24T08:16:54;19.37;;;4.83;;
59770;SDS011;45649;53.014;6.600;2023-02-24T08:19:27;17.83;;;6.03;;
59770;SDS011;45649;53.014;6.600;2023-02-24T08:22:13;14.43;;;4.33;;
59770;SDS011;45649;53.014;6.600;2023-02-24T08:24:50;13.73;;;4.03;;
59770;SDS011;45649;53.014;6.600;2023-02-24T08:27:17;15.83;;;4.53;;
59770;SDS011;45649;53.014;6.600;2023-02-24T08:29:46;13.10;;;4.00;;
59770;SDS011;45649;53.014;6.600;2023-02-24T08:35:35;14.60;;;4.53;;
59770;SDS011;45649;53.014;6.600;2023-02-24T08:38:01;13.23;;;4.30;;
59770;SDS011;45649;53.014;6.600;2023-02-24T08:40:32;14.47;;;4.93;;
59770;SDS011;45649;53.014;6.600;2023-02-24T08:42:59;12.80;;;4.70;;
59770;SDS011;45649;53.014;6.600;2023-02-24T08:45:40;14.13;;;4.67;;
59770;SDS011;45649;53.014;6.600;2023-02-24T08:48:09;11.30;;;4.50;;
59770;SDS011;45649;53.014;6.600;2023-02-24T08:50:45;12.20;;;4.83;;
59770;SDS011;45649;53.014;6.600;2023-02-24T08:53:13;10.40;;;4.83;;
59770;SDS011;45649;53.014;6.600;2023-02-24T08:55:46;15.80;;;4.73;;
59770;SDS011;45649;53.014;6.600;2023-02-24T08:58:18;9.07;;;4.13;;
59770;SDS011;45649;53.014;6.600;2023-02-24T09:00:54;13.07;;;4.50;;
59770;SDS011;45649;53.014;6.600;2023-02-24T09:03:23;10.77;;;3.93;;
59770;SDS011;45649;53.014;6.600;2023-02-24T09:08:27;12.17;;;4.37;;
59770;SDS011;45649;53.014;6.600;2023-02-24T09:11:00;9.27;;;4.27;;
59770;SDS011;45649;53.014;6.600;2023-02-24T09:13:32;8.20;;;4.60;;
59770;SDS011;45649;53.014;6.600;2023-02-24T09:15:59;15.83;;;4.43;;
59770;SDS011;45649;53.014;6.600;2023-02-24T09:18:26;11.60;;;4.73;;
59770;SDS011;45649;53.014;6.600;2023-02-24T09:20:57;14.10;;;5.17;;
59770;SDS011;45649;53.014;6.600;2023-02-24T09:23:42;9.23;;;4.70;;
59770;SDS011;45649;53.014;6.600;2023-02-24T09:26:12;9.43;;;4.83;;
59770;SDS011;45649;53.014;6.600;2023-02-24T09:28:39;10.43;;;4.60;;
59770;SDS011;45649;53.014;6.600;2023-02-24T09:31:19;15.77;;;5.40;;
59770;SDS011;45649;53.014;6.600;2023-02-24T09:33:48;9.63;;;4.73;;
59770;SDS011;45649;53.014;6.600;2023-02-24T09:36:19;8.83;;;4.30;;
59770;SDS011;45649;53.014;6.600;2023-02-24T09:38:58;9.73;;;4.33;;
59770;SDS011;45649;53.014;6.600;2023-02-24T09:44:56;7.47;;;4.17;;
59770;SDS011;45649;53.014;6.600;2023-02-24T09:46:52;8.87;;;4.63;;
59770;SDS011;45649;53.014;6.600;2023-02-24T09:49:23;7.27;;;4.03;;
59770;SDS011;45649;53.014;6.600;2023-02-24T09:51:52;9.03;;;4.37;;
59770;SDS011;45649;53.014;6.600;2023-02-24T09:54:28;6.73;;;4.33;;
59770;SDS011;45649;53.014;6.600;2023-02-24T09:57:02;7.67;;;4.57;;
59770;SDS011;45649;53.014;6.600;2023-02-24T10:02:29;7.70;;;4.60;;
59770;SDS011;45649;53.014;6.600;2023-02-24T10:10:02;7.47;;;4.53;;
59770;SDS011;45649;53.014;6.600;2023-02-24T10:12:54;7.77;;;4.13;;
59770;SDS011;45649;53.014;6.600;2023-02-24T10:15:25;7.17;;;4.50;;
59770;SDS011;45649;53.014;6.600;2023-02-24T10:23:47;8.37;;;4.37;;
59770;SDS011;45649;53.014;6.600;2023-02-24T10:26:25;11.80;;;5.27;;
59770;SDS011;45649;53.014;6.600;2023-02-24T10:29:02;8.03;;;4.70;;
59770;SDS011;45649;53.014;6.600;2023-02-24T10:31:45;8.97;;;4.50;;
59770;SDS011;45649;53.014;6.600;2023-02-24T10:34:13;7.77;;;4.30;;
59770;SDS011;45649;53.014;6.600;2023-02-24T10:36:50;12.63;;;5.10;;
59770;SDS011;45649;53.014;6.600;2023-02-24T10:41:50;11.70;;;5.27;;
59770;SDS011;45649;53.014;6.600;2023-02-24T10:44:24;16.23;;;4.80;;
59770;SDS011;45649;53.014;6.600;2023-02-24T10:47:00;19.67;;;5.60;;
59770;SDS011;45649;53.014;6.600;2023-02-24T10:49:39;18.37;;;5.37;;
59770;SDS011;45649;53.014;6.600;2023-02-24T10:52:09;24.77;;;6.00;;
59770;SDS011;45649;53.014;6.600;2023-02-24T10:54:53;27.43;;;5.60;;
59770;SDS011;45649;53.014;6.600;2023-02-24T10:57:32;21.90;;;5.13;;
59770;SDS011;45649;53.014;6.600;2023-02-24T11:00:05;21.93;;;5.17;;
59770;SDS011;45649;53.014;6.600;2023-02-24T11:02:55;20.97;;;5.00;;
59770;SDS011;45649;53.014;6.600;2023-02-24T11:05:42;24.77;;;5.73;;
59770;SDS011;45649;53.014;6.600;2023-02-24T11:08:20;28.37;;;4.80;;
59770;SDS011;45649;53.014;6.600;2023-02-24T11:11:06;24.70;;;5.40;;
59770;SDS011;45649;53.014;6.600;2023-02-24T11:13:32;24.90;;;4.77;;
59770;SDS011;45649;53.014;6.600;2023-02-24T11:16:17;23.37;;;4.60;;
59770;SDS011;45649;53.014;6.600;2023-02-24T11:19:04;23.87;;;5.43;;
59770;SDS011;45649;53.014;6.600;2023-02-24T11:21:31;25.60;;;5.10;;
59770;SDS011;45649;53.014;6.600;2023-02-24T11:23:58;22.67;;;5.50;;
59770;SDS011;45649;53.014;6.600;2023-02-24T11:26:44;27.57;;;5.67;;
59770;SDS011;45649;53.014;6.600;2023-02-24T11:40:00;26.57;;;4.97;;
59770;SDS011;45649;53.014;6.600;2023-02-24T11:42:45;20.57;;;4.90;;
59770;SDS011;45649;53.014;6.600;2023-02-24T11:48:00;18.87;;;4.30;;
59770;SDS011;45649;53.014;6.600;2023-02-24T11:50:48;22.47;;;4.63;;
59770;SDS011;45649;53.014;6.600;2023-02-24T11:53:29;22.27;;;4.47;;
59770;SDS011;45649;53.014;6.600;2023-02-24T11:58:43;25.57;;;5.23;;
59770;SDS011;45649;53.014;6.600;2023-02-24T12:01:34;24.20;;;5.67;;
59770;SDS011;45649;53.014;6.600;2023-02-24T12:04:05;26.17;;;6.23;;
59770;SDS011;45649;53.014;6.600;2023-02-24T12:06:37;27.30;;;5.80;;
59770;SDS011;45649;53.014;6.600;2023-02-24T12:09:17;24.57;;;6.90;;
59770;SDS011;45649;53.014;6.600;2023-02-24T12:11:47;29.57;;;6.40;;
59770;SDS011;45649;53.014;6.600;2023-02-24T12:16:42;29.33;;;5.60;;
59770;SDS011;45649;53.014;6.600;2023-02-24T12:21:44;23.10;;;4.63;;
59770;SDS011;45649;53.014;6.600;2023-02-24T12:24:13;16.83;;;3.80;;
59770;SDS011;45649;53.014;6.600;2023-02-24T12:26:44;11.23;;;3.00;;
59770;SDS011;45649;53.014;6.600;2023-02-24T12:45:17;13.63;;;3.03;;
59770;SDS011;45649;53.014;6.600;2023-02-24T12:50:27;16.60;;;3.17;;
59770;SDS011;45649;53.014;6.600;2023-02-24T12:53:08;15.20;;;3.17;;
59770;SDS011;45649;53.014;6.600;2023-02-24T12:58:15;14.60;;;3.20;;
59770;SDS011;45649;53.014;6.600;2023-02-24T13:05:47;18.90;;;3.33;;
59770;SDS011;45649;53.014;6.600;2023-02-24T13:15:56;12.73;;;2.87;;
59770;SDS011;45649;53.014;6.600;2023-02-24T13:18:23;8.27;;;3.00;;
59770;SDS011;45649;53.014;6.600;2023-02-24T13:20:59;13.23;;;2.97;;
59770;SDS011;45649;53.014;6.600;2023-02-24T13:23:25;8.50;;;3.60;;
59770;SDS011;45649;53.014;6.600;2023-02-24T13:25:52;7.23;;;2.10;;
59770;SDS011;45649;53.014;6.600;2023-02-24T13:28:23;10.17;;;2.53;;
59770;SDS011;45649;53.014;6.600;2023-02-24T13:30:59;5.80;;;1.90;;
59770;SDS011;45649;53.014;6.600;2023-02-24T13:33:28;4.37;;;1.90;;
59770;SDS011;45649;53.014;6.600;2023-02-24T13:36:08;5.03;;;1.83;;
59770;SDS011;45649;53.014;6.600;2023-02-24T13:38:37;4.50;;;1.60;;
59770;SDS011;45649;53.014;6.600;2023-02-24T13:43:51;4.93;;;1.70;;
59770;SDS011;45649;53.014;6.600;2023-02-24T13:46:18;9.20;;;2.73;;
59770;SDS011;45649;53.014;6.600;2023-02-24T13:51:43;5.57;;;1.70;;
59770;SDS011;45649;53.014;6.600;2023-02-24T13:56:54;7.13;;;1.73;;
59770;SDS011;45649;53.014;6.600;2023-02-24T13:59:37;6.20;;;1.77;;
59770;SDS011;45649;53.014;6.600;2023-02-24T14:02:26;7.97;;;1.80;;
59770;SDS011;45649;53.014;6.600;2023-02-24T14:04:51;5.43;;;1.80;;
59770;SDS011;45649;53.014;6.600;2023-02-24T14:07:22;7.07;;;1.90;;
59770;SDS011;45649;53.014;6.600;2023-02-24T14:10:01;8.00;;;2.13;;
59770;SDS011;45649;53.014;6.600;2023-02-24T14:12:35;6.63;;;1.97;;
59770;SDS011;45649;53.014;6.600;2023-02-24T14:15:02;8.07;;;2.43;;
59770;SDS011;45649;53.014;6.600;2023-02-24T14:17:29;9.87;;;3.17;;
59770;SDS011;45649;53.014;6.600;2023-02-24T14:22:51;9.57;;;2.37;;
59770;SDS011;45649;53.014;6.600;2023-02-24T14:25:18;7.77;;;2.20;;
59770;SDS011;45649;53.014;6.600;2023-02-24T14:27:46;9.73;;;3.50;;
59770;SDS011;45649;53.014;6.600;2023-02-24T14:32:48;4.67;;;2.77;;
59770;SDS011;45649;53.014;6.600;2023-02-24T14:35:29;11.17;;;3.30;;
59770;SDS011;45649;53.014;6.600;2023-02-24T14:37:56;9.83;;;3.77;;
59770;SDS011;45649;53.014;6.600;2023-02-24T14:40:23;10.50;;;3.13;;
59770;SDS011;45649;53.014;6.600;2023-02-24T14:42:50;10.00;;;3.40;;
59770;SDS011;45649;53.014;6.600;2023-02-24T14:45:18;11.63;;;3.10;;
59770;SDS011;45649;53.014;6.600;2023-02-24T14:47:44;11.03;;;2.83;;
59770;SDS011;45649;53.014;6.600;2023-02-24T14:50:17;10.27;;;2.60;;
59770;SDS011;45649;53.014;6.600;2023-02-24T14:52:46;9.10;;;3.03;;
59770;SDS011;45649;53.014;6.600;2023-02-24T14:55:22;10.97;;;3.00;;
59770;SDS011;45649;53.014;6.600;2023-02-24T15:00:22;9.87;;;3.30;;
59770;SDS011;45649;53.014;6.600;2023-02-24T15:05:21;11.30;;;2.87;;
59770;SDS011;45649;53.014;6.600;2023-02-24T15:07:47;10.63;;;3.10;;
59770;SDS011;45649;53.014;6.600;2023-02-24T15:10:24;14.43;;;4.00;;
59770;SDS011;45649;53.014;6.600;2023-02-24T15:13:11;8.60;;;2.43;;
59770;SDS011;45649;53.014;6.600;2023-02-24T15:15:40;5.53;;;2.03;;
59770;SDS011;45649;53.014;6.600;2023-02-24T15:18:11;7.90;;;2.67;;
59770;SDS011;45649;53.014;6.600;2023-02-24T15:20:41;7.53;;;2.33;;
59770;SDS011;45649;53.014;6.600;2023-02-24T15:23:23;9.77;;;2.50;;
59770;SDS011;45649;53.014;6.600;2023-02-24T15:25:50;12.97;;;2.80;;
59770;SDS011;45649;53.014;6.600;2023-02-24T15:28:26;17.07;;;2.83;;
59770;SDS011;45649;53.014;6.600;2023-02-24T15:30:57;14.73;;;2.73;;
59770;SDS011;45649;53.014;6.600;2023-02-24T15:33:24;12.00;;;2.97;;
59770;SDS011;45649;53.014;6.600;2023-02-24T15:35:51;12.30;;;3.10;;
59770;SDS011;45649;53.014;6.600;2023-02-24T15:38:21;11.83;;;2.67;;
59770;SDS011;45649;53.014;6.600;2023-02-24T15:40:55;11.83;;;2.80;;
59770;SDS011;45649;53.014;6.600;2023-02-24T15:45:57;9.47;;;2.60;;
59770;SDS011;45649;53.014;6.600;2023-02-24T15:48:24;11.70;;;2.80;;
59770;SDS011;45649;53.014;6.600;2023-02-24T15:50:52;11.87;;;3.03;;
59770;SDS011;45649;53.014;6.600;2023-02-24T15:53:18;13.70;;;2.67;;
59770;SDS011;45649;53.014;6.600;2023-02-24T15:55:45;11.50;;;2.70;;
59770;SDS011;45649;53.014;6.600;2023-02-24T15:58:12;9.67;;;2.50;;
59770;SDS011;45649;53.014;6.600;2023-02-24T16:00:39;7.80;;;2.50;;
59770;SDS011;45649;53.014;6.600;2023-02-24T16:03:05;12.90;;;2.43;;
59770;SDS011;45649;53.014;6.600;2023-02-24T16:05:31;11.20;;;2.60;;
59770;SDS011;45649;53.014;6.600;2023-02-24T16:07:57;11.23;;;2.50;;
59770;SDS011;45649;53.014;6.600;2023-02-24T16:10:24;12.57;;;3.10;;
59770;SDS011;45649;53.014;6.600;2023-02-24T16:12:55;15.83;;;4.07;;
59770;SDS011;45649;53.014;6.600;2023-02-24T16:15:29;15.23;;;3.40;;
59770;SDS011;45649;53.014;6.600;2023-02-24T16:17:56;15.83;;;4.03;;
59770;SDS011;45649;53.014;6.600;2023-02-24T16:20:26;17.33;;;4.00;;
59770;SDS011;45649;53.014;6.600;2023-02-24T16:22:56;13.87;;;4.50;;
59770;SDS011;45649;53.014;6.600;2023-02-24T16:25:23;13.07;;;3.57;;
59770;SDS011;45649;53.014;6.600;2023-02-24T16:27:49;20.07;;;3.80;;
59770;SDS011;45649;53.014;6.600;2023-02-24T16:30:21;15.43;;;3.93;;
59770;SDS011;45649;53.014;6.600;2023-02-24T16:32:48;12.77;;;3.80;;
59770;SDS011;45649;53.014;6.600;2023-02-24T16:35:14;15.00;;;3.53;;
59770;SDS011;45649;53.014;6.600;2023-02-24T16:37:40;14.23;;;3.80;;
59770;SDS011;45649;53.014;6.600;2023-02-24T16:40:32;14.77;;;3.40;;
59770;SDS011;45649;53.014;6.600;2023-02-24T16:42:57;15.83;;;3.60;;
59770;SDS011;45649;53.014;6.600;2023-02-24T16:45:27;11.73;;;3.10;;
59770;SDS011;45649;53.014;6.600;2023-02-24T16:47:54;15.67;;;4.13;;
59770;SDS011;45649;53.014;6.600;2023-02-24T16:50:22;15.57;;;4.20;;
59770;SDS011;45649;53.014;6.600;2023-02-24T16:52:49;17.03;;;4.20;;
59770;SDS011;45649;53.014;6.600;2023-02-24T16:55:15;14.60;;;4.17;;
59770;SDS011;45649;53.014;6.600;2023-02-24T16:57:41;15.10;;;4.97;;
59770;SDS011;45649;53.014;6.600;2023-02-24T17:00:08;14.97;;;4.77;;
59770;SDS011;45649;53.014;6.600;2023-02-24T17:02:35;20.03;;;5.43;;
59770;SDS011;45649;53.014;6.600;2023-02-24T17:05:01;18.07;;;4.10;;
59770;SDS011;45649;53.014;6.600;2023-02-24T17:07:27;22.73;;;4.53;;
59770;SDS011;45649;53.014;6.600;2023-02-24T17:09:53;12.87;;;3.77;;
59770;SDS011;45649;53.014;6.600;2023-02-24T17:12:20;22.67;;;5.82;;
59770;SDS011;45649;53.014;6.600;2023-02-24T17:14:46;17.13;;;6.00;;
59770;SDS011;45649;53.014;6.600;2023-02-24T17:17:12;23.07;;;6.87;;
59770;SDS011;45649;53.014;6.600;2023-02-24T17:19:38;17.50;;;4.50;;
59770;SDS011;45649;53.014;6.600;2023-02-24T17:22:04;19.83;;;4.77;;